Aviation Digital Data Service (ADDS)

Output produced by METARs form (2310 UTC 15 August 2018)
found at http://www.aviationweather.gov/adds/metars/
 
RCTP 152300Z 23011KT 9999 FEW020 29/25 Q1001 NOSIG RMK A2958
TAF RCTP 152300Z 1600/1706 23013KT 9999 FEW016 BKN032 
     TEMPO 1601/1608 26018KT 3200 SHRA FEW008 FEW010CB BKN017 
     TEMPO 1618/1624 22008KT
       
RCMQ 152300Z 19003KT 9999 FEW012 SCT060 BKN200 27/24 Q1003 NOSIG RMK A2963
TAF RCMQ 151700Z 1518/1618 18008KT 9999 -RA FEW010 BKN050 TX33/1605Z TN26/1520Z 
     BECMG 1519/1521 18004KT 9999 
     BECMG 1522/1601 7000 -RA FEW010 BKN020 
     BECMG 1602/1605 23008KT 9999 FEW010 BKN050
       
RCFN 152300Z 28003KT 230V350 9999 -RA FEW020 SCT032 BKN080 26/25 Q1002 NOSIG RMK A2960 RA AMT 0.4MM
TAF RCFN 151700Z 1518/1618 35005KT 9999 FEW015 SCT045 
     BECMG 1600/1602 08005KT 
     TEMPO 1606/1612 18010KT 4000 SHRA FEW012 FEW015CB BKN020 
     BECMG 1612/1614 36005KT
       
RCKH 152300Z 08005KT 040V110 5000 -SHRA SCT008 FEW012CB BKN014 BKN032 25/24 Q1003 TEMPO 3000 SHRA RMK CB NW A2962
TAF RCKH 152300Z 1600/1706 07005KT 7000 FEW016 BKN032 
     TEMPO 1600/1606 27005KT 2500 SHRA FEW007 FEW010CB BKN013 
     TEMPO 1606/1612 31007KT 3200 SHRA FEW010 BKN015 
     TEMPO 1613/1620 2500 SHRA FEW010 BKN017 
     TEMPO 1621/1703 2300 SHRA FEW007 FEW010CB BKN013
       
RCSS 152300Z 28006KT 240V320 9999 FEW020 SCT100 BKN200 30/24 Q1001 NOSIG RMK A2957
TAF RCSS 152300Z 1600/1624 29007KT 9999 FEW016 BKN032 
     TEMPO 1602/1608 27012KT 4000 SHRA FEW010 BKN018 
     TEMPO 1618/1624 26005KT 5000 SHRA FEW010 BKN020
       
RCNN 152305Z 14010KT 4000 -TSRA SCT008 FEW010CB BKN021 BKN040 24/23 Q1002 NOSIG RMK A2962 TS SW MOV S
TAF RCNN 151700Z 1518/1618 09004KT 4000 RA BR SCT008 BKN021 BKN030 TX27/1606Z TN24/1520Z 
     TEMPO 1519/1523 9999 FEW012 BKN060 
     BECMG 1601/1604 24008KT 9999 FEW012 BKN060 
     BECMG 1611/1614 7000 -RA